Terminal Aerodrome Forecast
Issued by NWS

Home | Current Version | Previous Version | Text Only | Print | Product List | Glossary On
Versions: 1 2 3 4 5 6 7 8 9 10 11 12 13 14 15 16
000
FTUS45 KVEF 060237 AAB
TAFBIH
TAF AMD
KBIH 060237Z 0603/0624 35014KT P6SM SCT090 BKN200
     FM060400 33007KT P6SM FEW120 SCT200
     FM061900 18012G22KT P6SM FEW120=

USA.gov is the U.S. government's official web portal to all federal, state and local government web resources and services.